sensor_id;sensor_type;location;lat;lon;timestamp;P1;durP1;ratioP1;P2;durP2;ratioP2
19525;SDS011;9907;42.676;26.348;2023-02-03T00:01:40;2.10;;;1.90;;
19525;SDS011;9907;42.676;26.348;2023-02-03T00:04:06;2.63;;;1.80;;
19525;SDS011;9907;42.676;26.348;2023-02-03T00:06:31;3.40;;;1.80;;
19525;SDS011;9907;42.676;26.348;2023-02-03T00:08:57;1.83;;;1.60;;
19525;SDS011;9907;42.676;26.348;2023-02-03T00:11:25;2.63;;;1.77;;
19525;SDS011;9907;42.676;26.348;2023-02-03T00:13:50;3.03;;;1.87;;
19525;SDS011;9907;42.676;26.348;2023-02-03T00:16:16;3.70;;;1.80;;
19525;SDS011;9907;42.676;26.348;2023-02-03T00:18:41;2.17;;;1.80;;
19525;SDS011;9907;42.676;26.348;2023-02-03T00:21:07;3.10;;;2.57;;
19525;SDS011;9907;42.676;26.348;2023-02-03T00:23:32;2.90;;;2.33;;
19525;SDS011;9907;42.676;26.348;2023-02-03T00:26:08;4.00;;;2.37;;
19525;SDS011;9907;42.676;26.348;2023-02-03T00:28:34;2.50;;;1.90;;
19525;SDS011;9907;42.676;26.348;2023-02-03T00:31:00;4.77;;;1.80;;
19525;SDS011;9907;42.676;26.348;2023-02-03T00:33:25;2.23;;;1.57;;
19525;SDS011;9907;42.676;26.348;2023-02-03T00:35:51;2.83;;;1.90;;
19525;SDS011;9907;42.676;26.348;2023-02-03T00:38:16;1.80;;;1.70;;
19525;SDS011;9907;42.676;26.348;2023-02-03T00:40:41;2.47;;;1.60;;
19525;SDS011;9907;42.676;26.348;2023-02-03T00:43:07;4.43;;;1.90;;
19525;SDS011;9907;42.676;26.348;2023-02-03T00:45:32;2.83;;;2.03;;
19525;SDS011;9907;42.676;26.348;2023-02-03T00:47:58;2.40;;;1.70;;
19525;SDS011;9907;42.676;26.348;2023-02-03T00:50:23;3.03;;;1.83;;
19525;SDS011;9907;42.676;26.348;2023-02-03T00:52:49;3.17;;;1.63;;
19525;SDS011;9907;42.676;26.348;2023-02-03T00:55:14;1.63;;;1.53;;
19525;SDS011;9907;42.676;26.348;2023-02-03T00:57:40;2.07;;;1.50;;
19525;SDS011;9907;42.676;26.348;2023-02-03T01:00:06;2.67;;;2.10;;
19525;SDS011;9907;42.676;26.348;2023-02-03T01:02:32;2.27;;;1.80;;
19525;SDS011;9907;42.676;26.348;2023-02-03T01:04:57;3.43;;;1.73;;
19525;SDS011;9907;42.676;26.348;2023-02-03T01:07:23;3.27;;;1.90;;
19525;SDS011;9907;42.676;26.348;2023-02-03T01:09:48;1.70;;;1.57;;
19525;SDS011;9907;42.676;26.348;2023-02-03T01:12:14;1.73;;;1.40;;
19525;SDS011;9907;42.676;26.348;2023-02-03T01:14:39;2.90;;;1.40;;
19525;SDS011;9907;42.676;26.348;2023-02-03T01:17:04;2.47;;;1.33;;
19525;SDS011;9907;42.676;26.348;2023-02-03T01:19:30;3.07;;;2.13;;
19525;SDS011;9907;42.676;26.348;2023-02-03T01:21:55;3.00;;;1.70;;
19525;SDS011;9907;42.676;26.348;2023-02-03T01:24:21;2.30;;;1.50;;
19525;SDS011;9907;42.676;26.348;2023-02-03T01:26:46;1.60;;;1.50;;
19525;SDS011;9907;42.676;26.348;2023-02-03T01:29:12;1.33;;;1.23;;
19525;SDS011;9907;42.676;26.348;2023-02-03T01:31:39;3.23;;;1.77;;
19525;SDS011;9907;42.676;26.348;2023-02-03T01:34:07;2.10;;;1.50;;
19525;SDS011;9907;42.676;26.348;2023-02-03T01:36:35;1.80;;;1.70;;
19525;SDS011;9907;42.676;26.348;2023-02-03T01:39:02;2.70;;;2.10;;
19525;SDS011;9907;42.676;26.348;2023-02-03T01:41:30;2.17;;;1.93;;
19525;SDS011;9907;42.676;26.348;2023-02-03T01:43:58;3.07;;;1.70;;
19525;SDS011;9907;42.676;26.348;2023-02-03T01:51:38;1.57;;;1.47;;
19525;SDS011;9907;42.676;26.348;2023-02-03T01:54:07;2.13;;;1.50;;
19525;SDS011;9907;42.676;26.348;2023-02-03T01:56:37;2.43;;;1.60;;
19525;SDS011;9907;42.676;26.348;2023-02-03T01:59:06;1.77;;;1.67;;
19525;SDS011;9907;42.676;26.348;2023-02-03T02:01:32;4.90;;;1.70;;
19525;SDS011;9907;42.676;26.348;2023-02-03T02:03:59;2.43;;;1.40;;
19525;SDS011;9907;42.676;26.348;2023-02-03T02:06:26;1.23;;;1.10;;
19525;SDS011;9907;42.676;26.348;2023-02-03T02:08:52;3.40;;;1.63;;
19525;SDS011;9907;42.676;26.348;2023-02-03T02:11:19;1.67;;;1.40;;
19525;SDS011;9907;42.676;26.348;2023-02-03T02:13:45;2.50;;;1.90;;
19525;SDS011;9907;42.676;26.348;2023-02-03T02:35:18;2.80;;;1.80;;
19525;SDS011;9907;42.676;26.348;2023-02-03T02:38:12;1.47;;;1.37;;
19525;SDS011;9907;42.676;26.348;2023-02-03T02:41:07;2.13;;;1.70;;
19525;SDS011;9907;42.676;26.348;2023-02-03T02:43:41;2.23;;;1.50;;
19525;SDS011;9907;42.676;26.348;2023-02-03T02:46:22;1.40;;;1.30;;
19525;SDS011;9907;42.676;26.348;2023-02-03T02:51:29;3.57;;;1.80;;
19525;SDS011;9907;42.676;26.348;2023-02-03T02:53:58;1.93;;;1.37;;
19525;SDS011;9907;42.676;26.348;2023-02-03T02:56:27;2.10;;;1.53;;
19525;SDS011;9907;42.676;26.348;2023-02-03T02:58:56;2.87;;;1.60;;
19525;SDS011;9907;42.676;26.348;2023-02-03T03:01:23;2.63;;;1.60;;
19525;SDS011;9907;42.676;26.348;2023-02-03T03:03:49;1.83;;;1.30;;
19525;SDS011;9907;42.676;26.348;2023-02-03T03:08:57;1.67;;;1.57;;
19525;SDS011;9907;42.676;26.348;2023-02-03T03:11:28;2.30;;;1.70;;
19525;SDS011;9907;42.676;26.348;2023-02-03T03:14:00;2.37;;;1.67;;
19525;SDS011;9907;42.676;26.348;2023-02-03T03:16:28;2.00;;;1.70;;
19525;SDS011;9907;42.676;26.348;2023-02-03T03:19:40;2.00;;;1.80;;
19525;SDS011;9907;42.676;26.348;2023-02-03T03:21:58;2.57;;;2.00;;
19525;SDS011;9907;42.676;26.348;2023-02-03T03:24:28;3.97;;;1.60;;
19525;SDS011;9907;42.676;26.348;2023-02-03T03:26:57;2.83;;;1.90;;
19525;SDS011;9907;42.676;26.348;2023-02-03T03:29:32;1.83;;;1.70;;
19525;SDS011;9907;42.676;26.348;2023-02-03T03:32:03;3.70;;;2.10;;
19525;SDS011;9907;42.676;26.348;2023-02-03T03:34:29;3.43;;;1.90;;
19525;SDS011;9907;42.676;26.348;2023-02-03T03:37:08;1.73;;;1.20;;
19525;SDS011;9907;42.676;26.348;2023-02-03T03:40:01;2.13;;;1.67;;
19525;SDS011;9907;42.676;26.348;2023-02-03T03:42:33;3.20;;;1.90;;
19525;SDS011;9907;42.676;26.348;2023-02-03T03:45:18;2.93;;;1.60;;
19525;SDS011;9907;42.676;26.348;2023-02-03T03:50:52;3.60;;;1.90;;
19525;SDS011;9907;42.676;26.348;2023-02-03T03:53:22;1.53;;;1.43;;
19525;SDS011;9907;42.676;26.348;2023-02-03T03:55:52;1.70;;;1.43;;
19525;SDS011;9907;42.676;26.348;2023-02-03T03:58:23;4.43;;;1.57;;
19525;SDS011;9907;42.676;26.348;2023-02-03T04:00:53;1.83;;;1.67;;
19525;SDS011;9907;42.676;26.348;2023-02-03T04:03:27;2.27;;;1.83;;
19525;SDS011;9907;42.676;26.348;2023-02-03T04:05:57;3.47;;;2.10;;
19525;SDS011;9907;42.676;26.348;2023-02-03T04:08:22;2.87;;;1.70;;
19525;SDS011;9907;42.676;26.348;2023-02-03T04:10:48;2.10;;;1.80;;
19525;SDS011;9907;42.676;26.348;2023-02-03T04:13:13;1.93;;;1.53;;
19525;SDS011;9907;42.676;26.348;2023-02-03T04:15:40;2.17;;;1.73;;
19525;SDS011;9907;42.676;26.348;2023-02-03T04:18:06;2.23;;;2.00;;
19525;SDS011;9907;42.676;26.348;2023-02-03T04:20:31;3.70;;;2.20;;
19525;SDS011;9907;42.676;26.348;2023-02-03T04:22:57;2.33;;;1.83;;
19525;SDS011;9907;42.676;26.348;2023-02-03T04:25:24;2.63;;;1.80;;
19525;SDS011;9907;42.676;26.348;2023-02-03T04:27:50;4.07;;;2.00;;
19525;SDS011;9907;42.676;26.348;2023-02-03T04:30:15;2.07;;;1.90;;
19525;SDS011;9907;42.676;26.348;2023-02-03T04:32:42;3.77;;;1.80;;
19525;SDS011;9907;42.676;26.348;2023-02-03T04:35:09;3.47;;;2.47;;
19525;SDS011;9907;42.676;26.348;2023-02-03T04:37:34;4.30;;;2.97;;
19525;SDS011;9907;42.676;26.348;2023-02-03T04:40:00;4.33;;;2.77;;
19525;SDS011;9907;42.676;26.348;2023-02-03T04:42:26;4.23;;;2.37;;
19525;SDS011;9907;42.676;26.348;2023-02-03T04:44:52;4.67;;;2.20;;
19525;SDS011;9907;42.676;26.348;2023-02-03T04:47:17;5.03;;;3.67;;
19525;SDS011;9907;42.676;26.348;2023-02-03T04:49:43;6.07;;;4.87;;
19525;SDS011;9907;42.676;26.348;2023-02-03T04:52:09;6.10;;;3.43;;
19525;SDS011;9907;42.676;26.348;2023-02-03T04:54:35;2.90;;;2.57;;
19525;SDS011;9907;42.676;26.348;2023-02-03T04:57:01;3.17;;;2.33;;
19525;SDS011;9907;42.676;26.348;2023-02-03T04:59:27;3.50;;;2.30;;
19525;SDS011;9907;42.676;26.348;2023-02-03T05:01:53;3.70;;;1.80;;
19525;SDS011;9907;42.676;26.348;2023-02-03T05:04:18;3.87;;;2.27;;
19525;SDS011;9907;42.676;26.348;2023-02-03T05:06:44;2.77;;;1.73;;
19525;SDS011;9907;42.676;26.348;2023-02-03T05:09:09;2.10;;;1.70;;
19525;SDS011;9907;42.676;26.348;2023-02-03T05:11:35;2.30;;;2.10;;
19525;SDS011;9907;42.676;26.348;2023-02-03T05:14:00;2.43;;;2.00;;
19525;SDS011;9907;42.676;26.348;2023-02-03T05:16:26;3.97;;;2.20;;
19525;SDS011;9907;42.676;26.348;2023-02-03T05:18:51;3.17;;;2.00;;
19525;SDS011;9907;42.676;26.348;2023-02-03T05:21:17;2.10;;;1.87;;
19525;SDS011;9907;42.676;26.348;2023-02-03T05:23:43;3.13;;;1.80;;
19525;SDS011;9907;42.676;26.348;2023-02-03T05:26:08;4.23;;;2.30;;
19525;SDS011;9907;42.676;26.348;2023-02-03T05:28:34;3.30;;;2.43;;
19525;SDS011;9907;42.676;26.348;2023-02-03T05:31:00;4.87;;;2.40;;
19525;SDS011;9907;42.676;26.348;2023-02-03T05:33:26;3.30;;;2.50;;
19525;SDS011;9907;42.676;26.348;2023-02-03T05:35:52;2.63;;;2.30;;
19525;SDS011;9907;42.676;26.348;2023-02-03T05:38:17;3.57;;;2.40;;
19525;SDS011;9907;42.676;26.348;2023-02-03T05:40:42;5.10;;;2.53;;
19525;SDS011;9907;42.676;26.348;2023-02-03T05:43:27;3.13;;;2.00;;
19525;SDS011;9907;42.676;26.348;2023-02-03T05:45:53;3.70;;;2.60;;
19525;SDS011;9907;42.676;26.348;2023-02-03T05:48:18;5.23;;;3.07;;
19525;SDS011;9907;42.676;26.348;2023-02-03T05:50:44;3.80;;;2.57;;
19525;SDS011;9907;42.676;26.348;2023-02-03T05:53:09;3.60;;;2.70;;
19525;SDS011;9907;42.676;26.348;2023-02-03T05:55:35;6.27;;;3.30;;
19525;SDS011;9907;42.676;26.348;2023-02-03T05:58:01;3.50;;;2.77;;
19525;SDS011;9907;42.676;26.348;2023-02-03T06:00:27;6.00;;;2.80;;
19525;SDS011;9907;42.676;26.348;2023-02-03T06:02:54;2.60;;;2.40;;
19525;SDS011;9907;42.676;26.348;2023-02-03T06:05:21;3.87;;;2.20;;
19525;SDS011;9907;42.676;26.348;2023-02-03T06:07:48;2.87;;;2.20;;
19525;SDS011;9907;42.676;26.348;2023-02-03T06:10:14;5.90;;;2.83;;
19525;SDS011;9907;42.676;26.348;2023-02-03T06:12:40;3.17;;;2.60;;
19525;SDS011;9907;42.676;26.348;2023-02-03T06:15:06;3.07;;;2.77;;
19525;SDS011;9907;42.676;26.348;2023-02-03T06:17:32;5.50;;;3.00;;
19525;SDS011;9907;42.676;26.348;2023-02-03T06:19:58;5.60;;;3.73;;
19525;SDS011;9907;42.676;26.348;2023-02-03T06:22:23;5.97;;;3.10;;
19525;SDS011;9907;42.676;26.348;2023-02-03T06:24:49;3.73;;;2.73;;
19525;SDS011;9907;42.676;26.348;2023-02-03T06:27:14;4.53;;;3.10;;
19525;SDS011;9907;42.676;26.348;2023-02-03T06:29:40;3.07;;;2.73;;
19525;SDS011;9907;42.676;26.348;2023-02-03T06:32:06;3.13;;;2.30;;
19525;SDS011;9907;42.676;26.348;2023-02-03T06:34:32;3.33;;;2.83;;
19525;SDS011;9907;42.676;26.348;2023-02-03T06:36:58;4.60;;;3.00;;
19525;SDS011;9907;42.676;26.348;2023-02-03T06:39:23;4.20;;;3.00;;
19525;SDS011;9907;42.676;26.348;2023-02-03T06:41:49;3.47;;;2.60;;
19525;SDS011;9907;42.676;26.348;2023-02-03T06:44:16;3.07;;;2.70;;
19525;SDS011;9907;42.676;26.348;2023-02-03T06:46:44;3.20;;;2.60;;
19525;SDS011;9907;42.676;26.348;2023-02-03T06:49:10;4.83;;;3.13;;
19525;SDS011;9907;42.676;26.348;2023-02-03T06:51:35;3.57;;;2.63;;
19525;SDS011;9907;42.676;26.348;2023-02-03T06:54:01;3.57;;;2.50;;
19525;SDS011;9907;42.676;26.348;2023-02-03T06:56:27;3.43;;;2.50;;
19525;SDS011;9907;42.676;26.348;2023-02-03T06:58:53;2.50;;;2.20;;
19525;SDS011;9907;42.676;26.348;2023-02-03T07:01:19;2.83;;;2.37;;
19525;SDS011;9907;42.676;26.348;2023-02-03T07:03:45;3.37;;;2.40;;
19525;SDS011;9907;42.676;26.348;2023-02-03T07:06:11;2.63;;;2.43;;
19525;SDS011;9907;42.676;26.348;2023-02-03T07:08:38;2.50;;;2.30;;
19525;SDS011;9907;42.676;26.348;2023-02-03T07:11:03;3.00;;;2.70;;
19525;SDS011;9907;42.676;26.348;2023-02-03T07:13:29;3.30;;;2.33;;
19525;SDS011;9907;42.676;26.348;2023-02-03T07:15:54;4.63;;;2.20;;
19525;SDS011;9907;42.676;26.348;2023-02-03T07:18:20;2.63;;;2.33;;
19525;SDS011;9907;42.676;26.348;2023-02-03T07:20:49;5.13;;;3.23;;
19525;SDS011;9907;42.676;26.348;2023-02-03T07:23:15;3.43;;;2.63;;
19525;SDS011;9907;42.676;26.348;2023-02-03T07:25:41;3.33;;;2.40;;
19525;SDS011;9907;42.676;26.348;2023-02-03T07:28:06;4.83;;;2.80;;
19525;SDS011;9907;42.676;26.348;2023-02-03T07:30:32;2.73;;;2.30;;
19525;SDS011;9907;42.676;26.348;2023-02-03T07:32:57;2.60;;;2.20;;
19525;SDS011;9907;42.676;26.348;2023-02-03T07:35:23;3.57;;;2.70;;
19525;SDS011;9907;42.676;26.348;2023-02-03T07:37:49;2.80;;;2.50;;
19525;SDS011;9907;42.676;26.348;2023-02-03T07:40:15;2.20;;;1.87;;
19525;SDS011;9907;42.676;26.348;2023-02-03T07:42:42;2.97;;;2.40;;
19525;SDS011;9907;42.676;26.348;2023-02-03T07:45:08;3.17;;;2.63;;
19525;SDS011;9907;42.676;26.348;2023-02-03T07:47:35;4.00;;;3.13;;
19525;SDS011;9907;42.676;26.348;2023-02-03T07:50:01;3.50;;;2.87;;
19525;SDS011;9907;42.676;26.348;2023-02-03T07:52:27;3.57;;;2.93;;
19525;SDS011;9907;42.676;26.348;2023-02-03T07:54:53;3.17;;;2.70;;
19525;SDS011;9907;42.676;26.348;2023-02-03T07:57:18;2.93;;;2.57;;
19525;SDS011;9907;42.676;26.348;2023-02-03T07:59:44;4.47;;;2.70;;
19525;SDS011;9907;42.676;26.348;2023-02-03T08:02:09;3.83;;;2.43;;
19525;SDS011;9907;42.676;26.348;2023-02-03T08:04:37;4.37;;;3.10;;
19525;SDS011;9907;42.676;26.348;2023-02-03T08:07:03;4.40;;;3.00;;
19525;SDS011;9907;42.676;26.348;2023-02-03T08:09:28;4.03;;;3.43;;
19525;SDS011;9907;42.676;26.348;2023-02-03T08:11:54;5.50;;;3.57;;
19525;SDS011;9907;42.676;26.348;2023-02-03T08:14:19;3.60;;;3.30;;
19525;SDS011;9907;42.676;26.348;2023-02-03T08:16:45;3.57;;;3.00;;
19525;SDS011;9907;42.676;26.348;2023-02-03T08:19:11;4.67;;;2.80;;
19525;SDS011;9907;42.676;26.348;2023-02-03T08:21:36;5.43;;;3.23;;
19525;SDS011;9907;42.676;26.348;2023-02-03T08:24:02;4.53;;;3.13;;
19525;SDS011;9907;42.676;26.348;2023-02-03T08:26:28;2.60;;;2.40;;
19525;SDS011;9907;42.676;26.348;2023-02-03T08:28:53;3.30;;;3.00;;
19525;SDS011;9907;42.676;26.348;2023-02-03T08:31:19;3.17;;;2.80;;
19525;SDS011;9907;42.676;26.348;2023-02-03T08:33:44;3.33;;;2.47;;
19525;SDS011;9907;42.676;26.348;2023-02-03T08:36:10;5.30;;;2.60;;
19525;SDS011;9907;42.676;26.348;2023-02-03T08:38:36;4.33;;;2.80;;
19525;SDS011;9907;42.676;26.348;2023-02-03T08:41:14;5.60;;;2.87;;
19525;SDS011;9907;42.676;26.348;2023-02-03T08:43:44;3.23;;;2.43;;
19525;SDS011;9907;42.676;26.348;2023-02-03T08:46:10;2.70;;;2.50;;
19525;SDS011;9907;42.676;26.348;2023-02-03T08:48:36;3.17;;;2.27;;
19525;SDS011;9907;42.676;26.348;2023-02-03T08:51:08;3.50;;;2.87;;
19525;SDS011;9907;42.676;26.348;2023-02-03T08:53:35;4.30;;;2.47;;
19525;SDS011;9907;42.676;26.348;2023-02-03T08:56:04;4.10;;;2.30;;
19525;SDS011;9907;42.676;26.348;2023-02-03T08:58:35;3.20;;;2.43;;
19525;SDS011;9907;42.676;26.348;2023-02-03T09:01:05;4.97;;;2.90;;
19525;SDS011;9907;42.676;26.348;2023-02-03T09:03:35;3.50;;;2.73;;
19525;SDS011;9907;42.676;26.348;2023-02-03T09:06:01;3.00;;;2.70;;
19525;SDS011;9907;42.676;26.348;2023-02-03T09:08:27;3.67;;;2.67;;
19525;SDS011;9907;42.676;26.348;2023-02-03T09:10:53;6.97;;;3.50;;
19525;SDS011;9907;42.676;26.348;2023-02-03T09:13:19;4.07;;;2.70;;
19525;SDS011;9907;42.676;26.348;2023-02-03T09:15:45;4.17;;;2.67;;
19525;SDS011;9907;42.676;26.348;2023-02-03T09:18:10;3.20;;;2.60;;
19525;SDS011;9907;42.676;26.348;2023-02-03T09:20:35;3.13;;;2.50;;
19525;SDS011;9907;42.676;26.348;2023-02-03T09:23:01;3.47;;;2.10;;
19525;SDS011;9907;42.676;26.348;2023-02-03T09:25:26;3.13;;;2.50;;
19525;SDS011;9907;42.676;26.348;2023-02-03T09:27:52;3.00;;;2.40;;
19525;SDS011;9907;42.676;26.348;2023-02-03T09:30:17;4.37;;;3.30;;
19525;SDS011;9907;42.676;26.348;2023-02-03T09:32:43;3.03;;;2.70;;
19525;SDS011;9907;42.676;26.348;2023-02-03T09:35:12;3.37;;;3.03;;
19525;SDS011;9907;42.676;26.348;2023-02-03T09:37:38;4.17;;;3.10;;
19525;SDS011;9907;42.676;26.348;2023-02-03T09:40:04;3.13;;;2.40;;
19525;SDS011;9907;42.676;26.348;2023-02-03T09:45:29;3.00;;;2.40;;
19525;SDS011;9907;42.676;26.348;2023-02-03T09:47:57;4.90;;;2.90;;
19525;SDS011;9907;42.676;26.348;2023-02-03T09:50:30;3.77;;;2.57;;
19525;SDS011;9907;42.676;26.348;2023-02-03T09:53:00;2.77;;;2.57;;
19525;SDS011;9907;42.676;26.348;2023-02-03T09:55:38;3.47;;;2.63;;
19525;SDS011;9907;42.676;26.348;2023-02-03T10:00:42;3.80;;;2.03;;
19525;SDS011;9907;42.676;26.348;2023-02-03T10:06:08;5.30;;;2.43;;
19525;SDS011;9907;42.676;26.348;2023-02-03T10:11:45;2.53;;;2.33;;
19525;SDS011;9907;42.676;26.348;2023-02-03T10:17:38;2.60;;;2.40;;
19525;SDS011;9907;42.676;26.348;2023-02-03T10:20:13;2.73;;;2.47;;
19525;SDS011;9907;42.676;26.348;2023-02-03T10:23:10;4.43;;;3.20;;
19525;SDS011;9907;42.676;26.348;2023-02-03T10:25:44;4.30;;;3.90;;
19525;SDS011;9907;42.676;26.348;2023-02-03T10:28:19;2.57;;;2.37;;
19525;SDS011;9907;42.676;26.348;2023-02-03T10:30:47;2.70;;;2.30;;
19525;SDS011;9907;42.676;26.348;2023-02-03T10:33:18;3.47;;;2.50;;
19525;SDS011;9907;42.676;26.348;2023-02-03T10:41:02;2.63;;;2.10;;
19525;SDS011;9907;42.676;26.348;2023-02-03T10:43:28;3.33;;;2.43;;
19525;SDS011;9907;42.676;26.348;2023-02-03T10:46:19;2.73;;;2.43;;
19525;SDS011;9907;42.676;26.348;2023-02-03T10:48:51;3.20;;;2.40;;
19525;SDS011;9907;42.676;26.348;2023-02-03T10:53:59;2.73;;;2.50;;
19525;SDS011;9907;42.676;26.348;2023-02-03T10:56:35;3.30;;;2.60;;
19525;SDS011;9907;42.676;26.348;2023-02-03T10:59:02;3.33;;;2.60;;
19525;SDS011;9907;42.676;26.348;2023-02-03T11:07:00;4.67;;;2.20;;
19525;SDS011;9907;42.676;26.348;2023-02-03T11:09:40;3.30;;;2.23;;
19525;SDS011;9907;42.676;26.348;2023-02-03T11:12:13;3.17;;;2.60;;
19525;SDS011;9907;42.676;26.348;2023-02-03T11:14:44;2.83;;;2.17;;
19525;SDS011;9907;42.676;26.348;2023-02-03T11:17:22;2.70;;;2.10;;
19525;SDS011;9907;42.676;26.348;2023-02-03T11:19:54;2.37;;;2.00;;
19525;SDS011;9907;42.676;26.348;2023-02-03T11:22:27;3.00;;;2.30;;
19525;SDS011;9907;42.676;26.348;2023-02-03T11:25:16;4.57;;;3.20;;
19525;SDS011;9907;42.676;26.348;2023-02-03T11:27:44;3.23;;;2.93;;
19525;SDS011;9907;42.676;26.348;2023-02-03T11:30:19;5.23;;;3.77;;
19525;SDS011;9907;42.676;26.348;2023-02-03T11:32:49;2.90;;;2.67;;
19525;SDS011;9907;42.676;26.348;2023-02-03T11:35:20;3.50;;;2.80;;
19525;SDS011;9907;42.676;26.348;2023-02-03T11:37:52;6.87;;;2.40;;
19525;SDS011;9907;42.676;26.348;2023-02-03T11:42:57;2.57;;;2.30;;
19525;SDS011;9907;42.676;26.348;2023-02-03T11:45:50;2.90;;;2.30;;
19525;SDS011;9907;42.676;26.348;2023-02-03T11:51:02;3.43;;;2.20;;
19525;SDS011;9907;42.676;26.348;2023-02-03T12:05:51;2.60;;;2.20;;
19525;SDS011;9907;42.676;26.348;2023-02-03T12:10:55;4.23;;;2.20;;
19525;SDS011;9907;42.676;26.348;2023-02-03T12:16:36;2.30;;;2.10;;
19525;SDS011;9907;42.676;26.348;2023-02-03T12:21:44;4.90;;;2.50;;
19525;SDS011;9907;42.676;26.348;2023-02-03T12:27:55;2.77;;;2.03;;
19525;SDS011;9907;42.676;26.348;2023-02-03T12:30:01;3.80;;;2.40;;
19525;SDS011;9907;42.676;26.348;2023-02-03T12:32:39;5.00;;;2.20;;
19525;SDS011;9907;42.676;26.348;2023-02-03T12:37:44;8.20;;;4.00;;
19525;SDS011;9907;42.676;26.348;2023-02-03T12:40:16;2.97;;;2.53;;
19525;SDS011;9907;42.676;26.348;2023-02-03T12:43:07;4.87;;;2.30;;
19525;SDS011;9907;42.676;26.348;2023-02-03T12:45:41;2.60;;;2.20;;
19525;SDS011;9907;42.676;26.348;2023-02-03T12:48:16;2.93;;;2.53;;
19525;SDS011;9907;42.676;26.348;2023-02-03T12:50:49;3.90;;;2.47;;
19525;SDS011;9907;42.676;26.348;2023-02-03T12:53:19;2.50;;;2.30;;
19525;SDS011;9907;42.676;26.348;2023-02-03T12:55:54;3.37;;;2.43;;
19525;SDS011;9907;42.676;26.348;2023-02-03T12:58:35;2.60;;;2.40;;
19525;SDS011;9907;42.676;26.348;2023-02-03T13:01:07;5.53;;;2.17;;
19525;SDS011;9907;42.676;26.348;2023-02-03T13:03:40;2.43;;;2.20;;
19525;SDS011;9907;42.676;26.348;2023-02-03T13:06:21;4.97;;;2.17;;
19525;SDS011;9907;42.676;26.348;2023-02-03T13:09:04;2.50;;;2.10;;
19525;SDS011;9907;42.676;26.348;2023-02-03T13:11:57;2.83;;;2.37;;
19525;SDS011;9907;42.676;26.348;2023-02-03T13:17:19;3.73;;;2.40;;
19525;SDS011;9907;42.676;26.348;2023-02-03T13:19:53;2.57;;;2.37;;
19525;SDS011;9907;42.676;26.348;2023-02-03T13:22:22;3.07;;;2.37;;
19525;SDS011;9907;42.676;26.348;2023-02-03T13:24:51;3.07;;;2.30;;
19525;SDS011;9907;42.676;26.348;2023-02-03T13:41:27;4.47;;;2.50;;
19525;SDS011;9907;42.676;26.348;2023-02-03T13:44:20;2.17;;;2.07;;
19525;SDS011;9907;42.676;26.348;2023-02-03T13:46:52;2.00;;;1.80;;
19525;SDS011;9907;42.676;26.348;2023-02-03T13:49:34;2.70;;;2.43;;
19525;SDS011;9907;42.676;26.348;2023-02-03T13:52:01;3.00;;;2.70;;
19525;SDS011;9907;42.676;26.348;2023-02-03T13:54:32;4.50;;;2.77;;
19525;SDS011;9907;42.676;26.348;2023-02-03T13:57:03;3.50;;;2.83;;
19525;SDS011;9907;42.676;26.348;2023-02-03T13:59:43;3.87;;;3.00;;
19525;SDS011;9907;42.676;26.348;2023-02-03T14:12:37;5.47;;;3.23;;
19525;SDS011;9907;42.676;26.348;2023-02-03T14:25:23;3.43;;;2.67;;
19525;SDS011;9907;42.676;26.348;2023-02-03T14:28:02;2.70;;;2.50;;
19525;SDS011;9907;42.676;26.348;2023-02-03T14:30:30;3.47;;;2.40;;
19525;SDS011;9907;42.676;26.348;2023-02-03T14:32:56;2.63;;;2.43;;
19525;SDS011;9907;42.676;26.348;2023-02-03T14:35:28;2.40;;;2.20;;
19525;SDS011;9907;42.676;26.348;2023-02-03T14:38:08;2.43;;;2.20;;
19525;SDS011;9907;42.676;26.348;2023-02-03T14:49:40;7.43;;;4.00;;
19525;SDS011;9907;42.676;26.348;2023-02-03T14:58:04;9.57;;;5.37;;
19525;SDS011;9907;42.676;26.348;2023-02-03T15:00:40;23.97;;;7.30;;
19525;SDS011;9907;42.676;26.348;2023-02-03T15:05:36;6.40;;;3.93;;
19525;SDS011;9907;42.676;26.348;2023-02-03T15:13:42;4.00;;;3.63;;
19525;SDS011;9907;42.676;26.348;2023-02-03T15:16:11;4.67;;;3.80;;
19525;SDS011;9907;42.676;26.348;2023-02-03T15:18:40;5.27;;;3.67;;
19525;SDS011;9907;42.676;26.348;2023-02-03T15:21:13;4.50;;;3.70;;
19525;SDS011;9907;42.676;26.348;2023-02-03T15:23:41;5.93;;;4.43;;
19525;SDS011;9907;42.676;26.348;2023-02-03T15:26:16;7.63;;;4.17;;
19525;SDS011;9907;42.676;26.348;2023-02-03T15:29:01;3.90;;;3.57;;
19525;SDS011;9907;42.676;26.348;2023-02-03T15:34:04;7.87;;;4.37;;
19525;SDS011;9907;42.676;26.348;2023-02-03T15:36:43;11.73;;;4.40;;
19525;SDS011;9907;42.676;26.348;2023-02-03T15:39:30;8.07;;;4.40;;
19525;SDS011;9907;42.676;26.348;2023-02-03T15:41:57;6.00;;;5.00;;
19525;SDS011;9907;42.676;26.348;2023-02-03T15:46:56;12.67;;;5.13;;
19525;SDS011;9907;42.676;26.348;2023-02-03T15:49:27;4.90;;;4.47;;
19525;SDS011;9907;42.676;26.348;2023-02-03T15:52:10;5.40;;;4.10;;
19525;SDS011;9907;42.676;26.348;2023-02-03T15:54:41;6.77;;;3.73;;
19525;SDS011;9907;42.676;26.348;2023-02-03T15:57:15;3.70;;;3.27;;
19525;SDS011;9907;42.676;26.348;2023-02-03T16:00:21;3.97;;;3.57;;
19525;SDS011;9907;42.676;26.348;2023-02-03T16:02:53;5.97;;;4.27;;
19525;SDS011;9907;42.676;26.348;2023-02-03T16:05:26;14.97;;;9.37;;
19525;SDS011;9907;42.676;26.348;2023-02-03T16:07:54;21.50;;;11.30;;
19525;SDS011;9907;42.676;26.348;2023-02-03T16:10:26;29.00;;;15.60;;
19525;SDS011;9907;42.676;26.348;2023-02-03T16:13:09;16.97;;;11.40;;
19525;SDS011;9907;42.676;26.348;2023-02-03T16:18:26;17.13;;;9.63;;
19525;SDS011;9907;42.676;26.348;2023-02-03T16:20:52;10.07;;;6.53;;
19525;SDS011;9907;42.676;26.348;2023-02-03T16:23:21;8.33;;;6.30;;
19525;SDS011;9907;42.676;26.348;2023-02-03T16:28:38;7.10;;;5.57;;
19525;SDS011;9907;42.676;26.348;2023-02-03T16:31:22;5.67;;;4.77;;
19525;SDS011;9907;42.676;26.348;2023-02-03T16:34:17;6.37;;;4.43;;
19525;SDS011;9907;42.676;26.348;2023-02-03T16:37:10;7.87;;;4.97;;
19525;SDS011;9907;42.676;26.348;2023-02-03T16:39:56;9.80;;;5.77;;
19525;SDS011;9907;42.676;26.348;2023-02-03T16:42:40;6.30;;;4.70;;
19525;SDS011;9907;42.676;26.348;2023-02-03T16:45:24;4.80;;;3.90;;
19525;SDS011;9907;42.676;26.348;2023-02-03T16:48:09;8.57;;;5.17;;
19525;SDS011;9907;42.676;26.348;2023-02-03T16:50:54;6.23;;;5.43;;
19525;SDS011;9907;42.676;26.348;2023-02-03T16:56:00;7.03;;;5.40;;
19525;SDS011;9907;42.676;26.348;2023-02-03T16:58:28;8.63;;;6.03;;
19525;SDS011;9907;42.676;26.348;2023-02-03T17:00:55;9.63;;;6.60;;
19525;SDS011;9907;42.676;26.348;2023-02-03T17:03:24;15.00;;;9.87;;
19525;SDS011;9907;42.676;26.348;2023-02-03T17:05:51;27.50;;;16.10;;
19525;SDS011;9907;42.676;26.348;2023-02-03T17:08:18;11.90;;;8.67;;
19525;SDS011;9907;42.676;26.348;2023-02-03T17:10:45;9.67;;;7.57;;
19525;SDS011;9907;42.676;26.348;2023-02-03T17:13:15;9.47;;;6.50;;
19525;SDS011;9907;42.676;26.348;2023-02-03T17:15:42;9.33;;;5.87;;
19525;SDS011;9907;42.676;26.348;2023-02-03T17:18:10;6.53;;;5.63;;
19525;SDS011;9907;42.676;26.348;2023-02-03T17:20:39;6.60;;;5.27;;
19525;SDS011;9907;42.676;26.348;2023-02-03T17:23:05;5.80;;;4.80;;
19525;SDS011;9907;42.676;26.348;2023-02-03T17:25:32;6.90;;;5.87;;
19525;SDS011;9907;42.676;26.348;2023-02-03T17:28:00;6.60;;;5.80;;
19525;SDS011;9907;42.676;26.348;2023-02-03T17:30:27;6.13;;;5.27;;
19525;SDS011;9907;42.676;26.348;2023-02-03T17:32:53;6.60;;;5.47;;
19525;SDS011;9907;42.676;26.348;2023-02-03T17:35:18;7.30;;;5.47;;
19525;SDS011;9907;42.676;26.348;2023-02-03T17:37:44;9.23;;;6.53;;
19525;SDS011;9907;42.676;26.348;2023-02-03T17:40:09;8.17;;;6.20;;
19525;SDS011;9907;42.676;26.348;2023-02-03T17:42:35;6.83;;;4.80;;
19525;SDS011;9907;42.676;26.348;2023-02-03T17:45:01;9.07;;;5.57;;
19525;SDS011;9907;42.676;26.348;2023-02-03T17:47:26;7.17;;;4.83;;
19525;SDS011;9907;42.676;26.348;2023-02-03T17:49:52;6.90;;;5.17;;